createdAt,value
2018-09-25T00:02:08.248Z,11.70
2018-09-25T00:04:46.796Z,11.60
2018-09-25T00:07:25.593Z,11.60
2018-09-25T00:10:04.312Z,11.60
2018-09-25T00:12:43.018Z,11.50
2018-09-25T00:15:21.852Z,11.40
2018-09-25T00:18:00.537Z,11.40
2018-09-25T00:20:39.397Z,11.50
2018-09-25T00:23:18.264Z,11.50
2018-09-25T00:25:57.191Z,11.50
2018-09-25T00:28:36.060Z,11.50
2018-09-25T00:31:14.942Z,11.40
2018-09-25T00:33:53.634Z,11.40
2018-09-25T00:36:32.379Z,11.50
2018-09-25T00:39:13.462Z,11.60
2018-09-25T00:41:52.143Z,11.60
2018-09-25T00:44:30.814Z,11.60
2018-09-25T00:47:09.538Z,11.40
2018-09-25T00:49:48.187Z,11.50
2018-09-25T00:52:26.823Z,11.60
2018-09-25T00:55:05.538Z,11.60
2018-09-25T00:57:44.236Z,11.60
2018-09-25T01:00:22.889Z,11.50
2018-09-25T01:03:01.497Z,11.40
2018-09-25T01:05:40.098Z,11.40
2018-09-25T01:08:18.778Z,11.30
2018-09-25T01:10:57.560Z,11.30
2018-09-25T01:13:36.246Z,11.20
2018-09-25T01:16:15.316Z,11.20
2018-09-25T01:18:54.029Z,11.20
2018-09-25T01:21:32.752Z,11.30
2018-09-25T01:24:11.351Z,11.40
2018-09-25T01:26:52.175Z,11.50
2018-09-25T01:29:30.919Z,11.50
2018-09-25T01:32:09.607Z,11.50
2018-09-25T01:34:48.272Z,11.50
2018-09-25T01:37:27.034Z,11.40
2018-09-25T01:40:05.707Z,11.20
2018-09-25T01:42:44.539Z,10.70
2018-09-25T01:45:23.343Z,10.50
2018-09-25T01:48:02.142Z,10.40
2018-09-25T01:50:40.871Z,10.30
2018-09-25T01:53:19.563Z,10.30
2018-09-25T01:55:58.279Z,10.30
2018-09-25T01:58:36.995Z,10.30
2018-09-25T02:01:15.806Z,10.30
2018-09-25T02:03:54.424Z,10.40
2018-09-25T02:06:33.059Z,10.40
2018-09-25T02:09:12.185Z,10.30
2018-09-25T02:11:50.991Z,10.20
2018-09-25T02:14:29.824Z,10.00
2018-09-25T02:17:08.523Z,10.10
2018-09-25T02:19:47.221Z,10.20
2018-09-25T02:22:26.029Z,10.20
2018-09-25T02:25:04.976Z,10.30
2018-09-25T02:27:43.784Z,10.30
2018-09-25T02:30:22.689Z,10.30
2018-09-25T02:33:01.628Z,10.40
2018-09-25T02:35:40.445Z,10.40
2018-09-25T02:38:19.148Z,10.50
2018-09-25T02:40:57.847Z,10.50
2018-09-25T02:43:36.660Z,10.50
2018-09-25T02:46:15.519Z,10.60
2018-09-25T02:48:54.331Z,10.60
2018-09-25T02:51:33.220Z,10.70
2018-09-25T02:54:12.296Z,10.60
2018-09-25T02:56:51.019Z,10.70
2018-09-25T02:59:29.655Z,10.40
2018-09-25T03:02:08.316Z,10.40
2018-09-25T03:04:47.035Z,10.50
2018-09-25T03:07:25.672Z,10.40
2018-09-25T03:10:04.372Z,10.40
2018-09-25T03:12:43.131Z,10.40
2018-09-25T03:15:21.995Z,10.20
2018-09-25T03:18:00.787Z,10.20
2018-09-25T03:20:39.563Z,10.10
2018-09-25T03:23:18.367Z,10.10
2018-09-25T03:25:57.044Z,10.00
2018-09-25T03:28:35.895Z,10.10
2018-09-25T03:31:14.663Z,10.00
2018-09-25T03:33:53.531Z,9.90
2018-09-25T03:36:32.350Z,10.00
2018-09-25T03:39:13.179Z,10.00
2018-09-25T03:41:51.974Z,9.50
2018-09-25T03:44:30.742Z,9.60
2018-09-25T03:47:09.431Z,9.70
2018-09-25T03:49:48.069Z,9.70
2018-09-25T03:52:26.639Z,9.70
2018-09-25T03:55:05.299Z,9.80
2018-09-25T03:57:44.175Z,9.70
2018-09-25T04:00:22.907Z,9.70
2018-09-25T04:03:01.762Z,9.70
2018-09-25T04:05:40.463Z,9.60
2018-09-25T04:08:19.111Z,9.60
2018-09-25T04:11:04.713Z,9.50
2018-09-25T04:13:43.392Z,9.50
2018-09-25T04:16:22.085Z,9.50
2018-09-25T04:19:00.744Z,9.30
2018-09-25T04:21:39.463Z,9.30
2018-09-25T04:24:18.283Z,9.30
2018-09-25T04:26:56.943Z,9.20
2018-09-25T04:29:35.631Z,9.30
2018-09-25T04:32:14.275Z,9.30
2018-09-25T04:34:52.943Z,9.40
2018-09-25T04:37:31.662Z,9.50
2018-09-25T04:40:10.310Z,9.70
2018-09-25T04:42:49.082Z,9.40
2018-09-25T04:45:27.756Z,9.30
2018-09-25T04:48:06.439Z,9.30
2018-09-25T04:50:45.098Z,9.30
2018-09-25T04:53:23.683Z,9.20
2018-09-25T04:56:02.462Z,9.20
2018-09-25T04:58:41.123Z,9.20
2018-09-25T05:01:19.876Z,9.20
2018-09-25T05:03:58.555Z,9.20
2018-09-25T05:06:37.384Z,9.10
2018-09-25T05:09:17.116Z,8.90
2018-09-25T05:11:55.874Z,8.80
2018-09-25T05:14:34.652Z,9.00
2018-09-25T05:17:13.234Z,9.00
2018-09-25T05:19:51.903Z,9.80
2018-09-25T05:22:30.763Z,9.30
2018-09-25T05:25:09.625Z,8.80
2018-09-25T05:27:48.225Z,8.90
2018-09-25T05:30:26.999Z,8.90
2018-09-25T05:33:05.670Z,9.00
2018-09-25T05:35:44.396Z,8.90
2018-09-25T05:38:23.059Z,8.90
2018-09-25T05:41:01.847Z,8.90
2018-09-25T05:43:40.543Z,8.60
2018-09-25T05:46:19.250Z,8.60
2018-09-25T05:48:58.072Z,8.60
2018-09-25T05:51:36.734Z,8.70
2018-09-25T05:54:15.295Z,8.70
2018-09-25T05:56:54.138Z,8.60
2018-09-25T05:59:32.814Z,8.60
2018-09-25T06:02:11.541Z,8.70
2018-09-25T06:04:50.241Z,8.70
2018-09-25T06:07:28.936Z,8.80
2018-09-25T06:10:07.580Z,8.60
2018-09-25T06:12:46.258Z,8.60
2018-09-25T06:15:24.927Z,8.60
2018-09-25T06:18:03.744Z,8.70
2018-09-25T06:20:42.486Z,8.70
2018-09-25T06:23:21.200Z,8.80
2018-09-25T06:26:00.068Z,8.60
2018-09-25T06:28:38.776Z,8.70
2018-09-25T06:31:17.449Z,8.80
2018-09-25T06:33:56.168Z,8.80
2018-09-25T06:36:34.904Z,8.80
2018-09-25T06:39:14.323Z,8.80
2018-09-25T06:41:53.111Z,8.90
2018-09-25T06:44:31.954Z,8.90
2018-09-25T06:47:10.908Z,9.00
2018-09-25T06:49:49.560Z,9.00
2018-09-25T06:52:28.344Z,9.00
2018-09-25T06:55:06.941Z,9.10
2018-09-25T06:57:45.660Z,9.20
2018-09-25T07:00:24.340Z,9.30
2018-09-25T07:03:03.191Z,9.30
2018-09-25T07:05:41.879Z,9.30
2018-09-25T07:08:20.567Z,9.40
2018-09-25T07:10:59.239Z,9.50
2018-09-25T07:13:37.950Z,9.60
2018-09-25T07:16:16.568Z,9.60
2018-09-25T07:18:55.248Z,9.60
2018-09-25T07:21:33.879Z,9.80
2018-09-25T13:31:01.854Z,14.90
2018-09-25T13:33:40.624Z,17.40
2018-09-25T13:36:19.431Z,17.30
2018-09-25T13:38:58.151Z,17.30
2018-09-25T13:41:36.711Z,17.30
2018-09-25T13:44:15.441Z,17.20
2018-09-25T13:46:54.191Z,17.30
2018-09-25T13:49:33.043Z,17.40
2018-09-25T13:52:11.951Z,17.40
2018-09-25T13:54:50.799Z,17.60
2018-09-25T13:57:29.460Z,17.60
2018-09-25T14:00:08.091Z,17.60
2018-09-25T14:02:46.796Z,17.40
2018-09-25T14:05:25.589Z,17.50
2018-09-25T14:08:04.179Z,17.60
2018-09-25T14:10:42.805Z,17.60
2018-09-25T14:13:21.435Z,17.60
2018-09-25T14:16:00.143Z,17.60
2018-09-25T14:18:38.967Z,17.50
2018-09-25T14:21:17.829Z,17.50
2018-09-25T14:23:57.343Z,17.50
2018-09-25T14:26:36.312Z,17.70
2018-09-25T14:29:15.361Z,17.60
2018-09-25T14:31:55.501Z,17.70
2018-09-25T14:34:35.936Z,17.90
2018-09-25T14:37:14.743Z,18.00
2018-09-25T14:39:53.568Z,17.90
2018-09-25T14:42:32.648Z,17.80
2018-09-25T14:45:11.615Z,17.80
2018-09-25T14:47:50.754Z,17.80
2018-09-25T14:50:29.747Z,17.70
2018-09-25T14:53:08.588Z,17.50
2018-09-25T14:55:47.440Z,17.60
2018-09-25T14:58:26.379Z,17.60
2018-09-25T15:01:05.266Z,17.80
2018-09-25T15:03:43.984Z,17.60
2018-09-25T15:06:22.671Z,17.70
2018-09-25T15:09:01.595Z,17.90
2018-09-25T15:11:40.424Z,18.10
2018-09-25T15:14:19.106Z,18.10
2018-09-25T15:16:57.737Z,17.90
2018-09-25T15:19:36.335Z,18.00
2018-09-25T15:22:15.315Z,18.00
2018-09-25T15:24:53.740Z,17.90
2018-09-25T15:27:32.652Z,18.00
2018-09-25T15:30:11.544Z,18.00
2018-09-25T15:32:50.331Z,18.00
2018-09-25T15:35:29.311Z,18.10
2018-09-25T15:38:08.056Z,18.30
2018-09-25T15:40:46.974Z,17.80
2018-09-25T15:43:25.534Z,17.70
2018-09-25T15:46:04.363Z,17.60
2018-09-25T15:48:43.053Z,17.50
2018-09-25T15:51:21.923Z,17.60
2018-09-25T15:54:00.636Z,17.70
2018-09-25T15:56:39.456Z,17.60
2018-09-25T15:59:18.118Z,17.70
2018-09-25T16:01:56.939Z,17.80
2018-09-25T16:04:36.076Z,17.90
2018-09-25T16:07:14.877Z,17.90
2018-09-25T16:09:53.740Z,17.90
2018-09-25T16:12:32.929Z,17.80
2018-09-25T16:15:11.905Z,17.80
2018-09-25T16:17:50.952Z,17.60
2018-09-25T16:20:29.864Z,17.70
2018-09-25T16:23:08.685Z,17.80
2018-09-25T16:25:47.599Z,17.70
2018-09-25T16:28:26.384Z,17.70
2018-09-25T16:31:05.213Z,17.70
2018-09-25T16:33:44.040Z,17.70
2018-09-25T16:36:22.938Z,17.60
2018-09-25T16:39:01.693Z,17.40
2018-09-25T16:41:40.772Z,17.40
2018-09-25T16:44:19.808Z,17.20
2018-09-25T16:46:58.564Z,16.90
2018-09-25T16:49:37.219Z,16.90
2018-09-25T16:52:16.115Z,16.80
2018-09-25T16:54:54.867Z,16.60
2018-09-25T16:57:34.625Z,16.40
2018-09-25T17:00:13.501Z,16.40
2018-09-25T17:02:52.231Z,16.40
2018-09-25T17:05:30.934Z,16.40
2018-09-25T17:08:09.603Z,16.30
2018-09-25T17:10:48.420Z,16.30
2018-09-25T17:13:27.116Z,16.10
2018-09-25T17:16:05.876Z,16.10
2018-09-25T17:18:44.784Z,16.10
2018-09-25T17:21:23.704Z,16.10
2018-09-25T17:24:02.598Z,15.80
2018-09-25T17:26:41.365Z,15.80
2018-09-25T17:29:20.204Z,15.70
2018-09-25T17:31:59.122Z,15.70
2018-09-25T17:34:37.998Z,15.80
2018-09-25T17:37:16.832Z,15.70
2018-09-25T17:39:55.700Z,15.80
2018-09-25T17:42:34.427Z,15.70
2018-09-25T17:45:13.067Z,15.60
2018-09-25T17:47:51.821Z,15.20
2018-09-25T17:50:30.603Z,15.10
2018-09-25T17:53:09.203Z,15.10
2018-09-25T17:55:47.980Z,14.90
2018-09-25T17:58:26.780Z,14.90
2018-09-25T18:01:05.624Z,14.90
2018-09-25T18:03:44.415Z,14.90
2018-09-25T18:06:23.299Z,14.80
2018-09-25T18:09:02.146Z,14.70
2018-09-25T18:11:40.955Z,14.60
2018-09-25T18:14:19.682Z,14.60
2018-09-25T18:16:58.407Z,14.60
2018-09-25T18:19:37.087Z,14.60
2018-09-25T18:22:15.739Z,14.40
2018-09-25T18:24:54.492Z,14.50
2018-09-25T18:27:33.402Z,14.40
2018-09-25T18:30:12.176Z,14.40
2018-09-25T18:32:50.855Z,14.40
2018-09-25T18:35:29.704Z,14.20
2018-09-25T18:38:08.619Z,14.10
2018-09-25T18:40:47.215Z,14.10
2018-09-25T18:43:25.886Z,14.00
2018-09-25T18:46:04.431Z,13.90
2018-09-25T18:48:43.136Z,13.90
2018-09-25T18:51:21.801Z,14.00
2018-09-25T18:54:00.651Z,14.20
2018-09-25T18:56:39.333Z,14.30
2018-09-25T18:59:18.095Z,14.10
2018-09-25T19:01:56.796Z,14.20
2018-09-25T19:04:35.446Z,14.30
2018-09-25T19:07:14.035Z,14.30
2018-09-25T19:09:52.728Z,14.10
2018-09-25T19:12:31.416Z,14.10
2018-09-25T19:15:10.315Z,14.20
2018-09-25T19:17:49.180Z,14.20
2018-09-25T19:20:27.949Z,14.20
2018-09-25T19:23:06.678Z,14.40
2018-09-25T19:25:45.378Z,14.80
2018-09-25T19:28:27.616Z,14.60
2018-09-25T19:31:06.359Z,14.50
2018-09-25T19:33:45.141Z,14.30
2018-09-25T19:36:23.984Z,14.10
2018-09-25T19:39:02.860Z,14.20
2018-09-25T19:41:41.701Z,14.10
2018-09-25T19:44:20.611Z,14.10
2018-09-25T19:46:59.544Z,14.20
2018-09-25T19:49:38.306Z,14.10
2018-09-25T19:52:17.607Z,14.10
2018-09-25T19:54:56.603Z,14.00
2018-09-25T19:57:35.510Z,14.00
2018-09-25T20:00:14.591Z,14.00
2018-09-25T20:02:53.515Z,14.00
2018-09-25T20:05:32.239Z,14.00
2018-09-25T20:08:10.948Z,13.90
2018-09-25T20:10:49.820Z,13.80
2018-09-25T20:13:28.482Z,13.90
2018-09-25T20:16:07.103Z,13.80
2018-09-25T20:18:45.968Z,13.70
2018-09-25T20:21:24.602Z,13.60
2018-09-25T20:24:03.375Z,13.60
2018-09-25T20:26:42.216Z,13.50
2018-09-25T20:29:21.035Z,13.60
2018-09-25T20:31:59.879Z,13.50
2018-09-25T20:34:38.560Z,13.50
2018-09-25T20:37:17.377Z,13.50
2018-09-25T20:39:57.020Z,13.50
2018-09-25T20:42:35.707Z,13.20
2018-09-25T20:45:14.563Z,13.00
2018-09-25T20:47:53.359Z,13.20
2018-09-25T20:50:32.050Z,13.20
2018-09-25T20:53:10.701Z,13.20
2018-09-25T20:55:49.555Z,13.20
2018-09-25T20:58:28.146Z,13.20
2018-09-25T21:01:06.792Z,13.30
2018-09-25T21:03:46.771Z,13.00
2018-09-25T21:06:25.551Z,13.10
2018-09-25T21:09:04.484Z,13.00
2018-09-25T21:11:43.250Z,13.10
2018-09-25T21:14:22.220Z,13.10
2018-09-25T21:17:01.044Z,12.90
2018-09-25T21:19:39.668Z,12.80
2018-09-25T21:22:18.463Z,12.30
2018-09-25T21:24:57.208Z,12.20
2018-09-25T21:27:36.047Z,12.10
2018-09-25T21:30:14.747Z,12.20
2018-09-25T21:32:53.642Z,12.30
2018-09-25T21:35:32.206Z,12.20
2018-09-25T21:38:10.934Z,12.20
2018-09-25T21:40:49.591Z,12.30
2018-09-25T21:43:29.499Z,12.10
2018-09-25T21:46:08.127Z,12.20
2018-09-25T21:48:46.782Z,12.10
2018-09-25T21:51:25.621Z,12.10
2018-09-25T21:54:04.231Z,12.00
2018-09-25T21:56:43.173Z,12.10
2018-09-25T21:59:21.707Z,12.30
2018-09-25T22:02:00.653Z,12.30
2018-09-25T22:04:39.475Z,12.40
2018-09-25T22:07:18.356Z,12.40
2018-09-25T22:09:57.147Z,12.40
2018-09-25T22:12:35.908Z,12.40
2018-09-25T22:15:14.578Z,12.40
2018-09-25T22:17:53.453Z,12.30
2018-09-25T22:20:32.342Z,12.20
2018-09-25T22:23:11.193Z,12.10
2018-09-25T22:25:50.079Z,12.10
2018-09-25T22:28:28.815Z,11.90
2018-09-25T22:31:07.623Z,11.90
2018-09-25T22:33:46.373Z,12.00
2018-09-25T22:36:25.032Z,11.80
2018-09-25T22:39:04.040Z,11.70
2018-09-25T22:41:42.782Z,11.60
2018-09-25T22:44:21.803Z,11.60
2018-09-25T22:47:00.495Z,11.50
2018-09-25T22:49:39.118Z,11.60
2018-09-25T22:52:17.795Z,11.20
2018-09-25T22:54:56.572Z,10.90
2018-09-25T22:57:35.402Z,10.80
2018-09-25T23:00:13.978Z,11.00
2018-09-25T23:02:52.759Z,11.00
2018-09-25T23:05:31.555Z,11.10
2018-09-25T23:08:10.425Z,11.10
2018-09-25T23:10:49.334Z,11.10
2018-09-25T23:13:28.043Z,11.10
2018-09-25T23:16:06.747Z,11.10
2018-09-25T23:18:45.626Z,11.10
2018-09-25T23:21:24.398Z,11.10
2018-09-25T23:24:03.019Z,11.10
2018-09-25T23:26:41.735Z,11.00
2018-09-25T23:29:20.515Z,11.00
2018-09-25T23:31:59.315Z,10.60
2018-09-25T23:34:38.127Z,10.50
2018-09-25T23:37:16.887Z,10.50
2018-09-25T23:42:00.287Z,10.50
2018-09-25T23:44:44.798Z,10.70
2018-09-25T23:47:37.460Z,10.50
2018-09-25T23:50:19.943Z,10.50
2018-09-25T23:52:59.462Z,9.90
2018-09-25T23:55:40.202Z,9.80
2018-09-25T23:58:17.340Z,10.00
